Aérodrome :
LOGIN :

S'inscrire | Disclaimer

   EN    FR    IT 

 










Légende :    VFR   VFR Marginal   IFR   IFR Intensif   IFR Très Intensif
Visi : 
Plafond : 
>= 8 km
>= 3000ft
5 à 8 km
1000 à 3000 ft
1500m à 5 km
500 à 1000 ft
800 à 1500m
200 à 500 ft
< 800m
< 200 ft
Symboles :   Orages  Brouillard  Fortes neiges  Fortes précipitations  Vent > 20 kt
SIGMETs :   Divers  Orages  Givrage  Turbulence  Onde Orograph.  Cendres Volcan.







- Altitude de l'aérodrome : 1247 ft
- Code IATA : PRG


LKPR - Praha Ruzyne

DERNIER METAR :
  • 221830Z 23010KT CAVOK 14/04 Q1020 NOSIG

METARs EXPIRÉS :
  • 221800Z 23007KT CAVOK 14/04 Q1019 NOSIG
  • 221730Z 24009KT CAVOK 14/03 Q1020 NOSIG
  • 221700Z 23010KT CAVOK 14/03 Q1019 NOSIG
  • 221630Z 24012KT CAVOK 15/03 Q1019 NOSIG
  • 221600Z 25013KT CAVOK 15/03 Q1020 NOSIG

TAF TAF LKPR
Valide du 22 à 18h jusqu'au 24 à 00h UTC


221700Z 2218/2400 24012KT CAVOK
TEMPO 2218/2304 24014G24KT
BECMG 2307/2309 18012KT 7000 RA BKN025
TEMPO 2310/2315 4000 RA BKN012
BECMG 2315/2316 24020KT CAVOK
BECMG 2318/2319 32016KT 9999 BKN025
TEMPO 2319/2400 4000 SHRA BKN015
PROB30
TEMPO 2319/2320 32036G52KT 2000 TSRA SCT015CB
Pas de NOTAMs connus pour ce terrain.



MET'MAP, la Météo Aéronautique d'un coup d'oeil ! - Copyright ORBIFLY Décembre 2007 - Disclaimer

ORBIFLY MET'MAP TEAM :

Programmation & Développement : Alexandra Zaïnal
Conception & Développement : Baudouin d'Aumeries
Co-Programmation & Développement : Marc-Olivier Méhu
Soutien technique & logistique : Manuel Goepfert

Contact : metmap@orbifly.com




SOURCES & CREDITS :

   NOAA